ěÝzenÝ letovÚho provozu ╚eskÚ republiky
Letiste: LKCS Aktualizace: 10.08.2022 16:00:32  UTC
 METAR LKCS 10.08. 16:00 ...
METAR LKCS 101600Z AUTO 04005KT 330V090 9999 SCT093/// 25/08 Q1024=